Terminal Aerodrome Forecast
Issued by NWS Cleveland, OH

Home | Current Version | Previous Version | Text Only | Print | Product List | Glossary Off
Versions: 1 2 3 4 5 6 7 8 9 10 11 12 13 14 15 16 17 18 19 20 21 22 23 24 25 26

594
FTUS41 KCLE 110918 AAA
TAFCLE
TAF AMD
KCLE 110918Z 1109/1212 32014G22KT 6SM -SN OVC045
      TEMPO 1110/1114 BKN045
     FM111400 30014G22KT 6SM -SHSN BKN035
     FM120200 23007KT P6SM SCT035=

USA.gov is the U.S. government's official web portal to all federal, state and local government web resources and services.